Time;durP1;ratioP1;P1;durP2;ratioP2;P2;SDS_P1;SDS_P2;PMS_P1;PMS_P2;Temp;Humidity;BMP_temperature;BMP_pressure;BME280_temperature;BME280_humidity;BME280_pressure;Samples;Min_cycle;Max_cycle;Signal;HPM_P1;HPM_P2
2023/07/15 00:00:13;;;;;;;98.97;76.70;;;;;;;23.40;45.54;93243.19;4987264;28;20428;-89
2023/07/15 00:02:39;;;;;;;101.32;74.88;;;;;;;23.40;45.23;93245.94;4988383;28;20131;-90
2023/07/15 00:05:04;;;;;;;102.93;76.93;;;;;;;23.38;45.46;93240.25;4972366;28;20058;-89
2023/07/15 00:07:30;;;;;;;102.00;76.10;;;;;;;23.39;45.58;93247.22;4971579;28;20056;-89
2023/07/15 00:09:57;;;;;;;96.13;74.47;;;;;;;23.37;45.40;93236.78;4989253;28;20041;-90
2023/07/15 00:12:22;;;;;;;94.35;73.50;;;;;;;23.38;45.36;93243.03;4989090;28;20531;-91
2023/07/15 00:14:48;;;;;;;86.63;66.63;;;;;;;23.39;45.48;93236.94;4984668;28;20047;-91
2023/07/15 00:17:13;;;;;;;98.97;71.78;;;;;;;23.38;45.53;93245.78;4954870;28;20043;-92
2023/07/15 00:19:39;;;;;;;92.03;70.90;;;;;;;23.38;45.74;93245.78;4988340;28;20043;-89
2023/07/15 00:22:05;;;;;;;89.30;68.63;;;;;;;23.37;45.73;93238.78;4987163;28;20073;-90
2023/07/15 00:24:31;;;;;;;93.55;71.00;;;;;;;23.37;45.64;93238.78;5005428;28;20055;-89
2023/07/15 00:26:58;;;;;;;89.55;68.20;;;;;;;23.38;45.59;93243.75;4988985;28;20536;-89
2023/07/15 00:29:24;;;;;;;89.82;67.30;;;;;;;23.36;45.64;93240.81;4985822;28;20050;-90
2023/07/15 00:31:49;;;;;;;93.90;68.85;;;;;;;23.37;45.68;93242.28;4988737;28;20056;-88
2023/07/15 00:34:15;;;;;;;85.35;65.38;;;;;;;23.38;45.51;93237.50;4984504;28;20046;-88
2023/07/15 00:36:40;;;;;;;91.80;68.50;;;;;;;23.36;45.47;93237.31;4981429;28;20034;-92
2023/07/15 00:39:05;;;;;;;93.13;69.90;;;;;;;23.37;45.56;93241.56;4987499;28;20046;-90
2023/07/15 00:41:33;;;;;;;86.05;65.78;;;;;;;23.35;45.48;93249.63;5013758;28;20484;-89
2023/07/15 00:43:58;;;;;;;82.07;64.18;;;;;;;23.35;45.81;93242.09;5003466;28;20102;-90
2023/07/15 00:46:36;;;;;;;86.70;63.28;;;;;;;23.35;46.00;93239.34;4987683;28;20038;-92
2023/07/15 00:49:17;;;;;;;85.03;67.35;;;;;;;23.36;45.60;93248.34;4988372;28;20059;-91
2023/07/15 00:51:49;;;;;;;86.07;61.53;;;;;;;23.35;45.49;93239.34;4982121;28;20042;-89
2023/07/15 00:54:14;;;;;;;83.78;65.72;;;;;;;23.35;45.85;93244.13;4971423;28;20062;-91
2023/07/15 00:56:40;;;;;;;78.88;63.35;;;;;;;23.35;45.67;93246.88;4987890;28;20061;-88
2023/07/15 00:59:06;;;;;;;79.03;62.03;;;;;;;23.34;45.82;93240.63;5002255;28;20035;-89
2023/07/15 01:01:31;;;;;;;81.40;63.78;;;;;;;23.35;45.87;93244.13;4997658;28;20042;-90
2023/07/15 01:03:57;;;;;;;73.03;56.00;;;;;;;23.34;45.73;93243.38;4984879;28;20038;-90
2023/07/15 01:06:22;;;;;;;78.28;60.65;;;;;;;23.34;45.72;93246.13;4975128;28;20053;-89
2023/07/15 01:08:48;;;;;;;84.70;64.40;;;;;;;23.35;45.91;93241.34;4978152;28;20045;-91
2023/07/15 01:11:13;;;;;;;75.43;58.60;;;;;;;23.35;45.85;93246.88;5004201;28;20558;-90
2023/07/15 01:13:40;;;;;;;74.75;56.40;;;;;;;23.33;45.88;93250.19;4993033;28;20038;-89
2023/07/15 01:16:05;;;;;;;77.43;57.92;;;;;;;23.33;45.72;93241.91;5003169;28;20397;-90
2023/07/15 01:18:31;;;;;;;69.95;53.88;;;;;;;23.34;45.92;93246.13;4988178;28;20188;-89
2023/07/15 01:20:58;;;;;;;75.63;57.78;;;;;;;23.32;45.60;93248.72;5002399;28;20086;-89
2023/07/15 01:23:24;;;;;;;78.63;57.72;;;;;;;23.33;45.79;93244.66;4971091;28;20042;-91
2023/07/15 01:25:49;;;;;;;76.63;59.25;;;;;;;23.32;46.14;93240.44;5004210;28;20057;-90
2023/07/15 01:28:15;;;;;;;73.28;57.65;;;;;;;23.32;45.60;93245.94;4954265;28;20046;-91
2023/07/15 01:30:40;;;;;;;73.70;58.60;;;;;;;23.32;45.69;93242.44;4988430;28;20452;-91
2023/07/15 01:33:06;;;;;;;78.20;56.35;;;;;;;23.32;46.05;93250.72;4986917;28;20461;-92
2023/07/15 01:35:32;;;;;;;76.30;56.17;;;;;;;23.32;45.87;93250.72;4986109;28;20520;-90
2023/07/15 01:37:57;;;;;;;71.10;53.45;;;;;;;23.32;45.92;93251.47;5003216;28;20050;-92
2023/07/15 01:40:22;;;;;;;69.32;54.25;;;;;;;23.31;46.12;93247.22;4985276;28;20497;-88
2023/07/15 01:42:48;;;;;;;68.25;51.35;;;;;;;23.32;46.22;93242.44;4985843;28;20045;-89
2023/07/15 01:45:13;;;;;;;67.85;51.28;;;;;;;23.31;46.05;93249.25;4998873;28;20102;-90
2023/07/15 01:47:39;;;;;;;67.95;53.47;;;;;;;23.31;46.17;93247.22;4987474;28;20073;-89
2023/07/15 01:50:08;;;;;;;69.90;53.10;;;;;;;23.30;46.02;93254.03;4984292;28;20097;-89
2023/07/15 01:52:34;;;;;;;68.80;53.53;;;;;;;23.30;45.86;93247.78;4971733;28;20571;-90
2023/07/15 01:55:00;;;;;;;68.75;50.13;;;;;;;23.30;46.24;93247.78;4970799;28;20042;-89
2023/07/15 01:57:25;;;;;;;68.90;50.38;;;;;;;23.31;46.12;93240.97;4985215;28;20092;-89
2023/07/15 01:59:57;;;;;;;66.63;51.08;;;;;;;23.29;45.95;93249.06;4970895;28;20038;-90
2023/07/15 02:02:23;;;;;;;67.43;51.03;;;;;;;23.29;46.12;93244.28;4988214;28;20046;-89
2023/07/15 02:04:48;;;;;;;64.20;48.55;;;;;;;23.30;46.23;93247.78;4982350;28;20552;-91
2023/07/15 02:07:14;;;;;;;71.13;53.63;;;;;;;23.30;46.07;93250.53;4981185;28;20057;-90
2023/07/15 02:09:39;;;;;;;63.60;49.22;;;;;;;23.30;46.09;93245.00;4969861;28;20038;-91
2023/07/15 02:12:05;;;;;;;66.13;48.55;;;;;;;23.29;46.28;93244.28;4968754;28;20443;-90
2023/07/15 02:14:30;;;;;;;59.80;45.72;;;;;;;23.29;46.51;93240.78;5004025;28;20530;-89
2023/07/15 02:16:57;;;;;;;64.43;48.58;;;;;;;23.28;46.08;93244.81;4986912;28;20039;-89
2023/07/15 02:19:23;;;;;;;62.67;49.58;;;;;;;23.27;46.15;93241.31;5000440;28;20050;-90
2023/07/15 02:21:48;;;;;;;63.53;46.72;;;;;;;23.29;46.26;93236.00;4999972;28;20043;-89
2023/07/15 02:24:14;;;;;;;63.10;48.53;;;;;;;23.28;46.21;93234.53;5002322;28;20089;-89
2023/07/15 02:26:40;;;;;;;59.92;46.42;;;;;;;23.28;46.21;93229.00;4985074;28;20049;-91
2023/07/15 02:29:07;;;;;;;55.13;41.10;;;;;;;23.29;46.28;93238.03;4953604;28;20069;-88
2023/07/15 02:31:32;;;;;;;58.15;46.83;;;;;;;23.27;46.10;93238.56;4983030;28;20053;-89
2023/07/15 02:33:58;;;;;;;54.40;43.38;;;;;;;23.28;46.29;93242.06;5002628;28;20463;-90
2023/07/15 02:36:23;;;;;;;60.10;46.03;;;;;;;23.28;46.37;93236.56;4984390;28;20050;-91
2023/07/15 02:38:49;;;;;;;59.65;46.38;;;;;;;23.27;46.34;93229.56;4983246;28;20043;-89
2023/07/15 02:41:14;;;;;;;53.38;42.53;;;;;;;23.28;46.31;93242.81;4981635;28;20054;-90
2023/07/15 02:43:39;;;;;;;56.95;44.55;;;;;;;23.26;46.15;93239.84;4986833;28;20045;-91
2023/07/15 02:46:05;;;;;;;53.92;41.88;;;;;;;23.25;46.29;93239.13;5001110;28;20049;-90
2023/07/15 02:48:31;;;;;;;55.60;42.17;;;;;;;23.25;46.29;93232.84;4969695;28;20109;-91
2023/07/15 02:50:57;;;;;;;58.95;43.42;;;;;;;23.25;46.36;93232.84;4982947;28;20042;-89
2023/07/15 02:53:22;;;;;;;55.78;43.78;;;;;;;23.25;46.35;93243.88;4978096;28;20121;-90
2023/07/15 02:55:50;;;;;;;52.15;42.72;;;;;;;23.24;46.73;93236.91;4969454;28;20046;-89
2023/07/15 02:58:17;;;;;;;54.35;42.83;;;;;;;23.24;46.33;93234.88;5001641;28;20066;-90
2023/07/15 03:00:42;;;;;;;44.15;35.45;;;;;;;23.25;46.35;93235.63;4954373;28;20080;-91
2023/07/15 03:03:09;;;;;;;54.88;41.55;;;;;;;23.25;46.41;93241.88;4985377;28;20038;-89
2023/07/15 03:05:36;;;;;;;50.83;40.42;;;;;;;23.23;46.36;93249.94;4985473;28;20084;-91
2023/07/15 03:08:01;;;;;;;47.78;36.10;;;;;;;23.25;46.54;93246.66;5002512;28;20129;-89
2023/07/15 03:10:27;;;;;;;46.80;37.80;;;;;;;23.26;46.23;93245.38;4996017;28;20085;-89
2023/07/15 03:12:53;;;;;;;50.15;40.03;;;;;;;23.24;46.33;93247.94;4968539;28;20134;-90
2023/07/15 03:15:19;;;;;;;50.35;39.17;;;;;;;23.24;46.43;93245.16;5001922;28;20053;-91
2023/07/15 03:17:46;;;;;;;44.35;36.70;;;;;;;23.24;46.41;93247.94;4966951;28;20059;-91
2023/07/15 03:20:21;;;;;;;46.83;36.72;;;;;;;23.22;46.36;93244.97;4975295;28;20039;-89
2023/07/15 03:22:49;;;;;;;46.83;38.15;;;;;;;23.23;46.54;93249.94;4989130;28;20607;-91
2023/07/15 03:25:14;;;;;;;52.38;40.28;;;;;;;23.22;46.62;93248.47;5005144;28;20145;-91
2023/07/15 03:27:40;;;;;;;55.47;40.85;;;;;;;23.22;46.40;93253.25;4988677;28;20690;-91
2023/07/15 03:30:08;;;;;;;43.50;35.13;;;;;;;23.23;46.66;93249.94;4989376;28;20046;-88
2023/07/15 03:32:37;;;;;;;45.45;34.78;;;;;;;23.23;46.71;93251.97;5005627;28;20402;-89
2023/07/15 03:35:03;;;;;;;50.80;38.63;;;;;;;23.24;46.64;93251.44;4988526;28;20049;-89
2023/07/15 03:37:30;;;;;;;48.45;37.00;;;;;;;23.24;46.59;93250.69;4988793;28;20045;-90
2023/07/15 03:39:55;;;;;;;44.83;37.33;;;;;;;23.21;46.37;93255.28;5002807;28;20105;-89
2023/07/15 03:42:21;;;;;;;49.28;37.28;;;;;;;23.22;46.55;93248.47;4985579;28;20039;-89
2023/07/15 03:44:46;;;;;;;44.15;36.97;;;;;;;23.22;46.45;93254.00;4989791;28;20622;-89
2023/07/15 03:47:11;;;;;;;47.30;36.38;;;;;;;23.23;46.49;93260.97;4987421;28;20047;-89
2023/07/15 03:49:37;;;;;;;45.78;35.45;;;;;;;23.23;46.39;93260.25;4988370;28;20046;-89
2023/07/15 03:52:02;;;;;;;47.25;36.33;;;;;;;23.26;46.40;93245.38;5004487;28;20046;-89
2023/07/15 03:54:28;;;;;;;45.40;36.92;;;;;;;23.25;46.45;93261.19;5005173;28;20038;-89
2023/07/15 03:56:53;;;;;;;43.60;33.63;;;;;;;23.24;46.48;93267.97;4971574;28;20061;-90
2023/07/15 03:59:19;;;;;;;40.97;33.13;;;;;;;23.25;46.46;93269.44;4985721;28;20463;-91
2023/07/15 04:01:44;;;;;;;41.17;33.78;;;;;;;23.25;46.39;93271.47;4982573;28;20406;-92
2023/07/15 04:04:11;;;;;;;43.47;33.72;;;;;;;23.29;46.31;93268.38;4986094;28;20050;-91
2023/07/15 04:06:37;;;;;;;46.22;35.53;;;;;;;23.30;46.37;93275.34;5016879;28;20039;-89
2023/07/15 04:09:05;;;;;;;46.35;35.45;;;;;;;23.34;46.08;93273.72;4988973;28;20089;-91
2023/07/15 04:11:31;;;;;;;40.17;35.08;;;;;;;23.38;46.17;93278.88;4967822;28;20123;-89
2023/07/15 04:13:57;;;;;;;44.85;33.80;;;;;;;23.42;46.21;93277.22;4996675;28;20042;-90
2023/07/15 04:16:22;;;;;;;41.25;32.53;;;;;;;23.43;46.19;93284.22;4987748;28;20061;-89
2023/07/15 04:18:47;;;;;;;41.53;33.05;;;;;;;23.43;46.29;93275.22;4987492;28;20038;-91
2023/07/15 04:21:13;;;;;;;44.55;33.22;;;;;;;23.44;46.14;93276.69;4988448;28;20408;-89
2023/07/15 04:23:38;;;;;;;41.10;32.90;;;;;;;23.47;46.30;93273.56;5013274;28;20053;-92
2023/07/15 04:26:05;;;;;;;42.58;32.97;;;;;;;23.55;45.89;93276.38;4984172;28;20054;-91
2023/07/15 04:28:30;;;;;;;40.40;33.53;;;;;;;23.49;46.21;93278.53;4994938;28;20133;-89
2023/07/15 04:30:56;;;;;;;39.30;31.50;;;;;;;23.52;46.07;93274.72;4984819;28;20047;-91
2023/07/15 04:33:22;;;;;;;39.67;30.38;;;;;;;23.49;46.07;93281.31;4993048;28;20042;-90
2023/07/15 04:35:48;;;;;;;40.20;30.63;;;;;;;23.51;46.10;93276.72;5004403;28;20038;-90
2023/07/15 04:38:13;;;;;;;34.40;30.63;;;;;;;23.48;46.21;93279.81;5004223;28;20040;-90
2023/07/15 04:40:39;;;;;;;39.58;30.35;;;;;;;23.49;45.92;93267.50;5003376;28;20042;-89
2023/07/15 04:43:04;;;;;;;38.47;29.65;;;;;;;23.51;46.13;93281.50;5004242;28;20500;-90
2023/07/15 04:45:31;;;;;;;36.20;29.92;;;;;;;23.50;46.09;93283.50;5004518;28;20720;-91
2023/07/15 04:47:57;;;;;;;34.92;28.38;;;;;;;23.52;46.05;93278.22;4985705;28;20544;-89
2023/07/15 04:50:23;;;;;;;34.47;28.88;;;;;;;23.52;46.21;93289.25;4987169;28;20046;-88
2023/07/15 04:52:48;;;;;;;32.58;26.13;;;;;;;23.53;46.27;93287.97;4985664;28;20050;-92
2023/07/15 04:55:14;;;;;;;30.35;25.40;;;;;;;23.54;46.16;93294.97;5003905;28;20061;-91
2023/07/15 04:57:40;;;;;;;30.98;25.55;;;;;;;23.54;46.72;93297.72;4987576;28;20042;-89
2023/07/15 05:00:16;;;;;;;32.95;26.25;;;;;;;23.56;45.93;93297.19;4989076;28;20526;-88
2023/07/15 05:02:41;;;;;;;29.33;23.48;;;;;;;23.56;46.36;93302.69;5001049;28;20421;-88
2023/07/15 05:05:07;;;;;;;30.20;24.80;;;;;;;23.56;46.49;93297.19;5005419;28;20042;-92
2023/07/15 05:07:33;;;;;;;27.30;23.52;;;;;;;23.58;46.27;93302.88;5022356;28;20042;-91
2023/07/15 05:09:59;;;;;;;30.83;26.83;;;;;;;23.58;46.15;93305.66;4972150;28;20042;-91
2023/07/15 05:12:26;;;;;;;29.70;24.65;;;;;;;23.58;46.22;93309.16;4988955;28;20046;-90
2023/07/15 05:14:51;;;;;;;30.42;23.90;;;;;;;23.58;46.18;93320.19;4989754;28;20118;-90
2023/07/15 05:17:17;;;;;;;29.55;25.42;;;;;;;23.61;45.95;93315.56;5001545;28;20041;-91
2023/07/15 05:19:42;;;;;;;32.50;24.48;;;;;;;23.61;45.91;93314.84;4974668;28;20042;-90
2023/07/15 05:22:07;;;;;;;27.52;22.17;;;;;;;23.64;46.20;93319.25;5001143;28;20068;-90
2023/07/15 05:24:33;;;;;;;29.02;23.02;;;;;;;23.64;45.81;93322.75;4987818;28;20041;-89
2023/07/15 05:26:58;;;;;;;30.38;23.63;;;;;;;23.66;45.80;93317.44;4984629;28;20070;-89
2023/07/15 05:29:24;;;;;;;29.30;23.70;;;;;;;23.67;45.97;93321.66;4981953;28;20053;-91
2023/07/15 05:31:49;;;;;;;29.73;23.67;;;;;;;23.68;45.87;93325.91;4988246;28;20058;-89
2023/07/15 05:34:15;;;;;;;32.30;23.88;;;;;;;23.70;45.83;93322.59;4983399;28;20049;-89
2023/07/15 05:36:40;;;;;;;27.15;22.77;;;;;;;23.71;45.87;93321.31;4987723;28;20097;-89
2023/07/15 05:39:06;;;;;;;27.33;23.05;;;;;;;23.73;45.95;93332.53;4985480;28;20054;-89
2023/07/15 05:41:31;;;;;;;26.15;22.67;;;;;;;23.74;46.00;93328.50;4985909;28;20314;-90
2023/07/15 05:43:57;;;;;;;31.10;23.45;;;;;;;23.73;45.94;93330.53;4954781;28;20042;-91
2023/07/15 05:46:22;;;;;;;27.85;22.48;;;;;;;23.77;45.74;93335.69;5001380;28;20517;-89
2023/07/15 05:48:47;;;;;;;27.02;23.15;;;;;;;23.78;45.93;93342.69;4986907;28;20030;-90
2023/07/15 05:51:13;;;;;;;27.02;21.05;;;;;;;23.77;45.89;93330.91;4985911;28;20523;-91
2023/07/15 05:53:38;;;;;;;27.20;23.30;;;;;;;23.81;45.69;93336.06;4986313;28;20319;-90
2023/07/15 05:56:04;;;;;;;30.20;23.15;;;;;;;23.81;45.69;93330.56;4986681;28;20034;-91
2023/07/15 05:58:29;;;;;;;28.50;24.13;;;;;;;23.81;45.72;93333.31;5002029;28;20070;-91
2023/07/15 06:00:55;;;;;;;31.75;24.27;;;;;;;23.86;45.40;93326.84;4966586;28;20053;-91
2023/07/15 06:03:20;;;;;;;26.58;21.65;;;;;;;23.86;45.46;93326.84;4983152;28;20050;-89
2023/07/15 06:05:46;;;;;;;30.10;23.85;;;;;;;23.84;45.55;93329.44;4986909;28;20471;-89
2023/07/15 06:08:14;;;;;;;28.52;23.58;;;;;;;23.88;45.32;93324.28;4985740;28;20038;-89
2023/07/15 06:10:42;;;;;;;26.63;22.65;;;;;;;23.90;45.40;93324.47;4983503;28;20409;-90
2023/07/15 06:13:08;;;;;;;25.80;21.58;;;;;;;23.90;45.46;93330.75;4978538;28;20555;-89
2023/07/15 06:15:35;;;;;;;26.77;21.70;;;;;;;23.92;45.41;93336.47;4986120;28;20034;-89
2023/07/15 06:18:01;;;;;;;25.20;21.00;;;;;;;23.96;45.24;93332.59;4983376;28;20034;-89
2023/07/15 06:20:27;;;;;;;26.33;22.08;;;;;;;23.97;45.28;93337.56;4984064;28;20039;-89
2023/07/15 06:22:52;;;;;;;26.42;21.77;;;;;;;23.97;45.41;93334.81;4986353;28;20614;-89
2023/07/15 06:25:18;;;;;;;24.45;20.05;;;;;;;23.99;45.65;93337.75;4984623;28;20038;-88
2023/07/15 06:27:43;;;;;;;26.38;21.35;;;;;;;24.01;45.37;93339.97;4985310;28;20427;-89
2023/07/15 06:30:09;;;;;;;28.08;21.60;;;;;;;24.01;45.51;93335.19;4991711;28;20051;-88
2023/07/15 06:32:35;;;;;;;26.08;22.05;;;;;;;24.03;45.26;93346.44;5002166;28;20531;-89
2023/07/15 06:35:00;;;;;;;26.80;20.58;;;;;;;24.03;45.41;93343.66;4986264;28;20078;-89
2023/07/15 06:37:26;;;;;;;22.98;19.65;;;;;;;24.04;45.03;93344.38;4985678;28;20065;-89
2023/07/15 06:39:51;;;;;;;23.27;19.92;;;;;;;24.04;45.45;93347.13;4985325;28;20046;-90
2023/07/15 06:42:17;;;;;;;23.27;20.10;;;;;;;24.07;45.44;93351.56;4994640;28;20053;-90
2023/07/15 06:44:42;;;;;;;26.70;22.15;;;;;;;24.04;45.37;93347.13;4969853;28;20038;-89
2023/07/15 06:47:08;;;;;;;25.10;19.58;;;;;;;24.06;45.31;93347.34;4984292;28;20046;-90
2023/07/15 06:49:33;;;;;;;23.92;20.75;;;;;;;24.09;45.35;93349.72;4985810;28;20042;-90
2023/07/15 06:51:58;;;;;;;24.20;20.67;;;;;;;24.08;45.24;93348.25;4986201;28;20417;-91
2023/07/15 06:54:24;;;;;;;26.83;22.20;;;;;;;24.07;45.24;93340.53;4994148;28;20042;-90
2023/07/15 06:56:49;;;;;;;23.38;19.80;;;;;;;24.08;45.21;93347.53;4982999;28;20113;-91
2023/07/15 06:59:15;;;;;;;25.60;20.65;;;;;;;24.09;45.21;93344.22;4988714;28;20543;-90
2023/07/15 07:01:40;;;;;;;24.58;20.02;;;;;;;24.10;45.03;93347.72;4968606;28;20043;-89
2023/07/15 07:04:07;;;;;;;26.88;20.13;;;;;;;24.11;45.13;93349.94;4985912;28;20393;-89
2023/07/15 07:06:32;;;;;;;25.05;18.77;;;;;;;24.09;45.26;93349.00;5002667;28;20046;-91
2023/07/15 07:08:57;;;;;;;21.98;19.05;;;;;;;24.09;45.16;93346.97;5001345;28;20042;-89
2023/07/15 07:11:24;;;;;;;24.83;19.65;;;;;;;24.12;45.41;93345.13;5000559;28;20174;-88
2023/07/15 07:13:49;;;;;;;22.63;19.80;;;;;;;24.15;45.36;93347.53;4984319;28;20082;-89
2023/07/15 07:16:15;;;;;;;21.17;18.02;;;;;;;24.18;45.17;93348.47;4983090;28;20500;-90
2023/07/15 07:18:41;;;;;;;26.27;19.70;;;;;;;24.18;45.38;93340.19;4975584;28;20042;-88
2023/07/15 07:21:07;;;;;;;21.50;19.17;;;;;;;24.20;45.31;93332.81;4985452;28;20046;-91
2023/07/15 07:23:32;;;;;;;22.25;17.83;;;;;;;24.20;45.41;93330.06;4987076;28;20046;-89
2023/07/15 07:25:58;;;;;;;58.35;21.70;;;;;;;24.16;45.39;93337.97;4999293;28;20043;-90
2023/07/15 07:28:41;;;;;;;71.68;22.90;;;;;;;24.14;45.26;93334.28;4990868;28;20038;-90
2023/07/15 07:31:07;;;;;;;28.67;19.42;;;;;;;24.13;45.27;93339.06;4979291;28;20539;-90
2023/07/15 07:33:32;;;;;;;24.30;19.08;;;;;;;24.14;45.37;93337.03;5001534;28;20034;-92
2023/07/15 07:35:58;;;;;;;27.15;19.30;;;;;;;24.15;45.38;93344.03;4986050;28;20449;-90
2023/07/15 07:38:23;;;;;;;28.00;18.00;;;;;;;24.18;45.57;93334.66;4983446;28;20042;-91
2023/07/15 07:40:48;;;;;;;23.38;17.95;;;;;;;24.16;45.68;93342.75;4996983;28;20523;-91
2023/07/15 07:43:15;;;;;;;23.65;19.52;;;;;;;24.14;45.56;93329.50;4984794;28;20049;-90
2023/07/15 07:45:40;;;;;;;22.33;17.42;;;;;;;24.15;45.68;93342.03;4984816;28;20171;-91
2023/07/15 07:48:05;;;;;;;22.85;17.83;;;;;;;24.16;45.74;93345.53;4991369;28;20497;-89
2023/07/15 07:50:33;;;;;;;25.33;17.38;;;;;;;24.17;45.57;93341.47;4965609;28;20043;-90
2023/07/15 07:52:58;;;;;;;25.25;16.77;;;;;;;24.18;45.49;93332.63;4980837;28;20493;-90
2023/07/15 07:55:23;;;;;;;19.92;15.55;;;;;;;24.19;45.42;93327.84;4983460;28;20049;-90
2023/07/15 07:57:49;;;;;;;24.63;17.02;;;;;;;24.17;45.77;93330.41;4986311;28;20038;-91
2023/07/15 08:00:14;;;;;;;23.48;16.67;;;;;;;24.19;45.77;93322.31;4984904;28;20481;-91
2023/07/15 08:02:40;;;;;;;27.70;16.90;;;;;;;24.19;46.02;93327.84;4970050;28;20072;-90
2023/07/15 08:05:06;;;;;;;25.25;16.30;;;;;;;24.18;45.79;93335.41;5002806;28;20416;-89
2023/07/15 08:07:31;;;;;;;23.35;16.88;;;;;;;24.19;45.60;93334.09;5004097;28;20109;-90
2023/07/15 08:09:57;;;;;;;20.90;15.82;;;;;;;24.18;45.72;93321.59;5005486;28;20442;-90
2023/07/15 08:12:22;;;;;;;24.88;16.08;;;;;;;24.18;45.65;93321.59;4987403;28;20591;-90
2023/07/15 08:14:47;;;;;;;24.88;15.40;;;;;;;24.19;45.70;93328.59;5004177;28;20074;-90
2023/07/15 08:17:13;;;;;;;26.50;17.55;;;;;;;24.19;45.45;93323.06;4988214;28;20046;-89
2023/07/15 08:19:38;;;;;;;20.02;15.85;;;;;;;24.19;45.68;93319.56;5005590;28;20038;-90
2023/07/15 08:22:04;;;;;;;19.98;14.60;;;;;;;24.18;46.00;93326.38;4998248;28;20587;-90
2023/07/15 08:24:30;;;;;;;21.70;15.43;;;;;;;24.17;45.92;93324.91;4986740;28;20050;-92
2023/07/15 08:26:55;;;;;;;20.33;15.13;;;;;;;24.20;45.80;93324.53;4989284;28;20042;-91
2023/07/15 08:29:20;;;;;;;21.08;15.00;;;;;;;24.16;45.84;93324.16;4986692;28;20094;-90
2023/07/15 08:31:46;;;;;;;20.65;15.13;;;;;;;24.19;45.68;93323.06;4988071;28;20547;-89
2023/07/15 08:34:12;;;;;;;24.83;15.40;;;;;;;24.19;45.66;93334.09;5005120;28;20038;-89
2023/07/15 08:36:37;;;;;;;20.52;15.52;;;;;;;24.18;46.01;93327.09;4986991;28;20034;-89
2023/07/15 08:39:03;;;;;;;20.65;13.45;;;;;;;24.16;45.90;93326.91;4988732;28;20109;-89
2023/07/15 08:41:29;;;;;;;23.90;15.80;;;;;;;24.16;46.10;93321.41;5001155;28;20549;-91
2023/07/15 08:43:54;;;;;;;18.83;13.80;;;;;;;24.16;45.98;93318.63;4983523;28;20115;-90
2023/07/15 08:46:27;;;;;;;17.23;14.10;;;;;;;24.17;45.80;93324.91;4985652;28;20057;-91
2023/07/15 08:48:53;;;;;;;19.33;14.32;;;;;;;24.14;46.10;93321.22;5004678;28;20046;-92
2023/07/15 08:51:21;;;;;;;16.80;13.57;;;;;;;24.16;45.98;93321.41;4982657;28;20043;-92
2023/07/15 08:53:46;;;;;;;23.08;14.32;;;;;;;24.16;45.98;93326.19;4966972;28;20405;-90
2023/07/15 08:56:12;;;;;;;16.10;13.65;;;;;;;24.18;45.98;93318.81;4980326;28;20047;-92
2023/07/15 08:58:41;;;;;;;19.45;13.45;;;;;;;24.16;46.03;93320.66;4966185;28;20047;-90
2023/07/15 09:01:06;;;;;;;20.25;14.05;;;;;;;24.16;46.08;93326.91;4978474;28;20416;-91
2023/07/15 09:03:32;;;;;;;18.25;14.30;;;;;;;24.15;45.88;93330.22;4980179;28;20121;-91
2023/07/15 09:05:57;;;;;;;18.73;14.20;;;;;;;24.13;46.38;93328.03;5003523;28;20070;-90
2023/07/15 09:08:24;;;;;;;15.30;13.65;;;;;;;24.18;45.86;93324.34;4987682;28;20053;-89
2023/07/15 09:10:53;;;;;;;16.70;13.88;;;;;;;24.15;46.10;93319.91;5004107;28;20045;-91
2023/07/15 09:13:24;;;;;;;16.90;13.98;;;;;;;24.14;46.28;93326.00;4986518;28;20382;-90
2023/07/15 09:15:50;;;;;;;19.67;14.40;;;;;;;24.13;46.13;93319.72;5000666;28;20042;-91
2023/07/15 09:18:15;;;;;;;19.48;14.75;;;;;;;24.17;46.15;93316.63;4985897;28;20046;-89
2023/07/15 09:20:41;;;;;;;14.70;13.05;;;;;;;24.15;46.22;93310.91;5002800;28;20093;-89
2023/07/15 09:23:07;;;;;;;25.85;14.68;;;;;;;24.16;45.97;93320.66;5003577;28;20057;-89
2023/07/15 09:25:33;;;;;;;17.20;12.60;;;;;;;24.16;46.13;93312.38;4987442;28;20047;-91
2023/07/15 09:27:58;;;;;;;18.05;13.93;;;;;;;24.15;46.11;93321.94;5003779;28;20054;-90
2023/07/15 09:30:24;;;;;;;19.73;14.27;;;;;;;24.16;45.97;93313.13;4969997;28;20034;-91
2023/07/15 09:32:49;;;;;;;15.88;12.65;;;;;;;24.16;46.05;93315.13;4971404;28;20050;-90
2023/07/15 09:35:15;;;;;;;16.67;12.95;;;;;;;24.15;46.11;93313.66;4987276;28;20046;-92
2023/07/15 09:37:40;;;;;;;17.65;12.02;;;;;;;24.17;46.22;93311.81;4983332;28;20375;-90
2023/07/15 09:40:09;;;;;;;15.65;13.10;;;;;;;24.16;46.39;93310.34;4978493;28;20046;-89
2023/07/15 09:42:51;;;;;;;15.43;12.13;;;;;;;24.15;46.15;93308.88;4986075;28;20046;-89
2023/07/15 09:45:31;;;;;;;16.38;13.02;;;;;;;24.14;46.36;93301.13;5002883;28;20413;-89
2023/07/15 09:47:57;;;;;;;20.58;13.55;;;;;;;24.17;46.11;93302.81;4990967;28;20054;-90
2023/07/15 09:50:22;;;;;;;13.93;11.60;;;;;;;24.18;46.50;93298.75;4982652;28;20055;-90
2023/07/15 09:52:48;;;;;;;15.25;13.02;;;;;;;24.18;46.50;93301.50;4973947;28;20101;-90
2023/07/15 09:55:14;;;;;;;17.00;12.60;;;;;;;24.18;46.44;93305.00;5011282;28;20392;-90
2023/07/15 09:57:39;;;;;;;18.08;11.82;;;;;;;24.15;46.52;93294.31;4983154;28;20031;-90
2023/07/15 10:00:06;;;;;;;18.83;13.15;;;;;;;24.18;46.21;93302.25;4976495;28;20050;-89
2023/07/15 10:02:41;;;;;;;16.30;12.07;;;;;;;24.16;46.25;93312.38;4967272;28;20031;-90
2023/07/15 10:05:13;;;;;;;14.73;12.07;;;;;;;24.15;46.38;93308.88;4976360;28;20038;-90
2023/07/15 10:07:39;;;;;;;16.27;12.23;;;;;;;24.17;46.14;93306.31;5003278;28;20042;-91
2023/07/15 10:10:06;;;;;;;14.13;11.43;;;;;;;24.16;46.27;93304.09;5002148;28;20038;-90
2023/07/15 10:12:33;;;;;;;17.45;12.85;;;;;;;24.16;46.37;93309.63;4985052;28;20058;-92
2023/07/15 10:14:58;;;;;;;18.52;12.52;;;;;;;24.16;46.59;93312.38;4985445;28;20043;-91
2023/07/15 10:17:24;;;;;;;14.65;13.07;;;;;;;24.16;46.40;93302.06;4983834;28;20043;-90
2023/07/15 10:19:50;;;;;;;16.90;12.68;;;;;;;24.14;46.59;93301.13;5002833;28;20057;-89
2023/07/15 10:22:18;;;;;;;14.52;11.00;;;;;;;24.15;46.45;93305.38;5001977;28;20073;-91
2023/07/15 10:24:44;;;;;;;17.40;12.23;;;;;;;24.19;46.56;93303.00;4986421;28;20030;-92
2023/07/15 10:27:10;;;;;;;17.67;12.00;;;;;;;24.14;46.61;93288.06;4968889;28;20046;-90
2023/07/15 10:29:40;;;;;;;12.50;11.07;;;;;;;24.18;46.44;93301.50;4985843;28;20077;-91
2023/07/15 10:32:11;;;;;;;18.20;12.05;;;;;;;24.16;46.38;93302.06;5002091;28;20349;-90
2023/07/15 10:34:39;;;;;;;17.40;13.18;;;;;;;24.13;46.56;93294.88;4984830;28;20054;-89
2023/07/15 10:37:08;;;;;;;14.05;12.10;;;;;;;24.15;46.41;93300.59;4985076;28;20039;-89
2023/07/15 10:39:34;;;;;;;15.75;12.57;;;;;;;24.19;46.68;93289.19;4967553;28;20117;-90
2023/07/15 10:42:07;;;;;;;14.93;11.15;;;;;;;24.15;46.78;93291.56;4981577;28;20433;-90
2023/07/15 10:44:38;;;;;;;15.02;12.20;;;;;;;24.16;46.57;93282.00;4984008;28;20046;-91
2023/07/15 10:47:04;;;;;;;13.52;11.25;;;;;;;24.15;46.74;93295.06;4986246;28;20057;-90
2023/07/15 10:49:30;;;;;;;14.38;10.70;;;;;;;24.16;46.58;93279.97;4968291;28;20405;-91
2023/07/15 10:51:55;;;;;;;13.15;10.88;;;;;;;24.17;46.77;93277.94;4986486;28;20054;-91
2023/07/15 10:54:28;;;;;;;14.30;10.60;;;;;;;24.15;46.74;93277.75;4985967;28;20134;-90
2023/07/15 10:56:54;;;;;;;11.85;10.27;;;;;;;24.18;46.44;93279.41;4985156;28;20125;-92
2023/07/15 10:59:23;;;;;;;14.32;10.65;;;;;;;24.16;46.46;93270.94;5002180;28;20045;-91
2023/07/15 11:01:48;;;;;;;11.63;10.38;;;;;;;24.20;46.61;93255.47;4985625;28;20073;-90
2023/07/15 11:04:13;;;;;;;12.80;10.15;;;;;;;24.19;46.74;93258.78;4952363;28;20484;-91
2023/07/15 11:06:39;;;;;;;12.57;9.85;;;;;;;24.18;46.76;93255.28;4985846;28;20565;-90
2023/07/15 11:09:17;;;;;;;12.68;10.30;;;;;;;24.16;46.67;93257.88;4986327;28;20042;-92
2023/07/15 11:11:43;;;;;;;13.07;10.77;;;;;;;24.18;46.70;93251.78;5001333;28;20053;-89